sensor_id;sensor_type;location;lat;lon;timestamp;temperature;humidity
38237;DHT22;50101;49.438;11.098;2023-05-10T00:01:23;20.80;57.40
38237;DHT22;50101;49.438;11.098;2023-05-10T00:03:50;20.80;57.40
38237;DHT22;50101;49.438;11.098;2023-05-10T00:06:17;20.80;57.30
38237;DHT22;50101;49.438;11.098;2023-05-10T00:08:44;20.80;57.30
38237;DHT22;50101;49.438;11.098;2023-05-10T00:11:11;20.80;57.30
38237;DHT22;50101;49.438;11.098;2023-05-10T00:13:38;20.80;57.30
38237;DHT22;50101;49.438;11.098;2023-05-10T00:16:05;20.80;57.30
38237;DHT22;50101;49.438;11.098;2023-05-10T00:18:32;20.80;57.30
38237;DHT22;50101;49.438;11.098;2023-05-10T00:20:58;20.80;57.90
38237;DHT22;50101;49.438;11.098;2023-05-10T00:23:25;20.80;57.30
38237;DHT22;50101;49.438;11.098;2023-05-10T00:25:52;20.80;57.30
38237;DHT22;50101;49.438;11.098;2023-05-10T00:28:18;20.80;57.40
38237;DHT22;50101;49.438;11.098;2023-05-10T00:30:45;20.80;57.40
38237;DHT22;50101;49.438;11.098;2023-05-10T00:33:12;20.70;57.40
38237;DHT22;50101;49.438;11.098;2023-05-10T00:35:39;20.80;57.50
38237;DHT22;50101;49.438;11.098;2023-05-10T00:38:06;20.80;57.50
38237;DHT22;50101;49.438;11.098;2023-05-10T00:40:32;20.80;57.40
38237;DHT22;50101;49.438;11.098;2023-05-10T00:42:59;20.80;57.50
38237;DHT22;50101;49.438;11.098;2023-05-10T00:45:27;20.80;57.50
38237;DHT22;50101;49.438;11.098;2023-05-10T00:47:54;20.80;57.50
38237;DHT22;50101;49.438;11.098;2023-05-10T00:50:23;20.70;57.30
38237;DHT22;50101;49.438;11.098;2023-05-10T00:52:50;20.80;57.50
38237;DHT22;50101;49.438;11.098;2023-05-10T00:55:17;20.70;57.40
38237;DHT22;50101;49.438;11.098;2023-05-10T00:57:44;20.70;58.00
38237;DHT22;50101;49.438;11.098;2023-05-10T01:00:12;20.70;57.40
38237;DHT22;50101;49.438;11.098;2023-05-10T01:02:40;20.70;57.40
38237;DHT22;50101;49.438;11.098;2023-05-10T01:05:08;20.70;57.40
38237;DHT22;50101;49.438;11.098;2023-05-10T01:07:36;20.80;57.40
38237;DHT22;50101;49.438;11.098;2023-05-10T01:10:03;20.80;57.40
38237;DHT22;50101;49.438;11.098;2023-05-10T01:12:30;20.70;58.00
38237;DHT22;50101;49.438;11.098;2023-05-10T01:14:57;20.70;57.40
38237;DHT22;50101;49.438;11.098;2023-05-10T01:17:24;20.70;57.40
38237;DHT22;50101;49.438;11.098;2023-05-10T01:19:52;20.70;57.40
38237;DHT22;50101;49.438;11.098;2023-05-10T01:25:46;20.70;57.40
38237;DHT22;50101;49.438;11.098;2023-05-10T01:31:31;20.70;57.50
38237;DHT22;50101;49.438;11.098;2023-05-10T01:34:10;20.70;57.50
38237;DHT22;50101;49.438;11.098;2023-05-10T01:36:50;20.70;57.60
38237;DHT22;50101;49.438;11.098;2023-05-10T01:42:29;20.70;57.40
38237;DHT22;50101;49.438;11.098;2023-05-10T01:45:06;20.70;57.40
38237;DHT22;50101;49.438;11.098;2023-05-10T01:47:38;20.70;57.40
38237;DHT22;50101;49.438;11.098;2023-05-10T01:50:15;20.70;57.40
38237;DHT22;50101;49.438;11.098;2023-05-10T01:52:45;20.70;57.50
38237;DHT22;50101;49.438;11.098;2023-05-10T01:55:15;20.70;57.50
38237;DHT22;50101;49.438;11.098;2023-05-10T01:57:44;20.70;57.50
38237;DHT22;50101;49.438;11.098;2023-05-10T02:00:14;20.70;57.60
38237;DHT22;50101;49.438;11.098;2023-05-10T02:02:45;20.70;57.60
38237;DHT22;50101;49.438;11.098;2023-05-10T02:05:14;20.70;57.60
38237;DHT22;50101;49.438;11.098;2023-05-10T02:07:42;20.70;57.60
38237;DHT22;50101;49.438;11.098;2023-05-10T02:10:10;20.70;57.70
38237;DHT22;50101;49.438;11.098;2023-05-10T02:12:41;20.70;57.70
38237;DHT22;50101;49.438;11.098;2023-05-10T02:15:09;20.70;57.70
38237;DHT22;50101;49.438;11.098;2023-05-10T02:17:37;20.70;57.70
38237;DHT22;50101;49.438;11.098;2023-05-10T02:20:06;20.70;57.80
38237;DHT22;50101;49.438;11.098;2023-05-10T02:22:35;20.70;57.70
38237;DHT22;50101;49.438;11.098;2023-05-10T02:25:03;20.70;57.20
38237;DHT22;50101;49.438;11.098;2023-05-10T02:27:30;20.70;57.80
38237;DHT22;50101;49.438;11.098;2023-05-10T02:29:58;20.70;57.70
38237;DHT22;50101;49.438;11.098;2023-05-10T02:32:26;20.70;57.70
38237;DHT22;50101;49.438;11.098;2023-05-10T02:34:54;20.70;57.70
38237;DHT22;50101;49.438;11.098;2023-05-10T02:37:22;20.70;57.80
38237;DHT22;50101;49.438;11.098;2023-05-10T02:39:52;20.70;57.80
38237;DHT22;50101;49.438;11.098;2023-05-10T02:42:23;20.70;57.80
38237;DHT22;50101;49.438;11.098;2023-05-10T02:44:54;20.70;57.30
38237;DHT22;50101;49.438;11.098;2023-05-10T02:47:22;20.70;57.80
38237;DHT22;50101;49.438;11.098;2023-05-10T02:49:49;20.70;57.90
38237;DHT22;50101;49.438;11.098;2023-05-10T02:52:21;20.70;57.80
38237;DHT22;50101;49.438;11.098;2023-05-10T02:54:50;20.70;57.80
38237;DHT22;50101;49.438;11.098;2023-05-10T02:57:25;20.70;57.90
38237;DHT22;50101;49.438;11.098;2023-05-10T02:59:52;20.70;57.90
38237;DHT22;50101;49.438;11.098;2023-05-10T03:02:20;20.70;57.90
38237;DHT22;50101;49.438;11.098;2023-05-10T03:04:47;20.70;57.90
38237;DHT22;50101;49.438;11.098;2023-05-10T03:07:14;20.70;58.10
38237;DHT22;50101;49.438;11.098;2023-05-10T03:09:41;20.70;58.20
38237;DHT22;50101;49.438;11.098;2023-05-10T03:18:15;20.70;58.20
38237;DHT22;50101;49.438;11.098;2023-05-10T03:20:49;20.70;58.20
38237;DHT22;50101;49.438;11.098;2023-05-10T03:23:26;20.70;58.10
38237;DHT22;50101;49.438;11.098;2023-05-10T03:25:53;20.70;58.20
38237;DHT22;50101;49.438;11.098;2023-05-10T03:28:21;20.70;58.20
38237;DHT22;50101;49.438;11.098;2023-05-10T03:30:49;20.70;58.80
38237;DHT22;50101;49.438;11.098;2023-05-10T03:33:16;20.70;58.30
38237;DHT22;50101;49.438;11.098;2023-05-10T03:35:43;20.70;58.20
38237;DHT22;50101;49.438;11.098;2023-05-10T03:38:12;20.70;58.20
38237;DHT22;50101;49.438;11.098;2023-05-10T03:40:39;20.60;58.10
38237;DHT22;50101;49.438;11.098;2023-05-10T03:43:06;20.70;58.30
38237;DHT22;50101;49.438;11.098;2023-05-10T03:45:32;20.60;58.20
38237;DHT22;50101;49.438;11.098;2023-05-10T03:47:59;20.70;58.40
38237;DHT22;50101;49.438;11.098;2023-05-10T03:50:26;20.70;58.40
38237;DHT22;50101;49.438;11.098;2023-05-10T03:52:53;20.60;58.20
38237;DHT22;50101;49.438;11.098;2023-05-10T03:55:20;20.60;58.20
38237;DHT22;50101;49.438;11.098;2023-05-10T03:57:47;20.60;58.10
38237;DHT22;50101;49.438;11.098;2023-05-10T04:00:16;20.70;58.20
38237;DHT22;50101;49.438;11.098;2023-05-10T04:02:43;20.70;58.40
38237;DHT22;50101;49.438;11.098;2023-05-10T04:05:11;20.70;58.50
38237;DHT22;50101;49.438;11.098;2023-05-10T04:07:39;20.70;58.50
38237;DHT22;50101;49.438;11.098;2023-05-10T04:10:05;20.70;58.40
38237;DHT22;50101;49.438;11.098;2023-05-10T04:12:32;20.70;58.40
38237;DHT22;50101;49.438;11.098;2023-05-10T04:14:59;20.70;58.30
38237;DHT22;50101;49.438;11.098;2023-05-10T04:17:26;20.70;58.10
38237;DHT22;50101;49.438;11.098;2023-05-10T04:19:53;20.70;58.30
38237;DHT22;50101;49.438;11.098;2023-05-10T04:22:21;20.70;58.20
38237;DHT22;50101;49.438;11.098;2023-05-10T04:24:47;20.70;58.20
38237;DHT22;50101;49.438;11.098;2023-05-10T04:27:14;20.70;58.20
38237;DHT22;50101;49.438;11.098;2023-05-10T04:29:41;20.70;58.20
38237;DHT22;50101;49.438;11.098;2023-05-10T04:32:08;20.70;58.20
38237;DHT22;50101;49.438;11.098;2023-05-10T04:34:36;20.70;58.20
38237;DHT22;50101;49.438;11.098;2023-05-10T04:37:03;20.70;58.20
38237;DHT22;50101;49.438;11.098;2023-05-10T04:39:30;20.70;58.20
38237;DHT22;50101;49.438;11.098;2023-05-10T04:41:57;20.70;58.30
38237;DHT22;50101;49.438;11.098;2023-05-10T04:44:24;20.70;58.30
38237;DHT22;50101;49.438;11.098;2023-05-10T04:46:50;20.70;58.30
38237;DHT22;50101;49.438;11.098;2023-05-10T04:49:17;20.70;58.30
38237;DHT22;50101;49.438;11.098;2023-05-10T04:51:44;20.70;58.30
38237;DHT22;50101;49.438;11.098;2023-05-10T04:54:10;20.70;58.30
38237;DHT22;50101;49.438;11.098;2023-05-10T04:56:37;20.70;58.30
38237;DHT22;50101;49.438;11.098;2023-05-10T04:59:04;20.70;58.30
38237;DHT22;50101;49.438;11.098;2023-05-10T05:01:31;20.70;58.30
38237;DHT22;50101;49.438;11.098;2023-05-10T05:03:57;20.70;58.50
38237;DHT22;50101;49.438;11.098;2023-05-10T05:06:25;20.70;58.30
38237;DHT22;50101;49.438;11.098;2023-05-10T05:08:53;20.70;58.30
38237;DHT22;50101;49.438;11.098;2023-05-10T05:11:20;20.70;58.30
38237;DHT22;50101;49.438;11.098;2023-05-10T05:13:47;20.70;58.40
38237;DHT22;50101;49.438;11.098;2023-05-10T05:16:14;20.70;58.30
38237;DHT22;50101;49.438;11.098;2023-05-10T05:18:41;20.70;58.40
38237;DHT22;50101;49.438;11.098;2023-05-10T05:21:18;20.70;58.40
38237;DHT22;50101;49.438;11.098;2023-05-10T05:23:45;20.70;58.40
38237;DHT22;50101;49.438;11.098;2023-05-10T05:26:12;20.70;58.40
38237;DHT22;50101;49.438;11.098;2023-05-10T05:28:38;20.70;58.40
38237;DHT22;50101;49.438;11.098;2023-05-10T05:31:06;20.70;58.40
38237;DHT22;50101;49.438;11.098;2023-05-10T05:33:34;20.70;58.40
38237;DHT22;50101;49.438;11.098;2023-05-10T05:36:01;20.70;58.40
38237;DHT22;50101;49.438;11.098;2023-05-10T05:38:28;20.70;58.40
38237;DHT22;50101;49.438;11.098;2023-05-10T05:40:55;20.70;58.40
38237;DHT22;50101;49.438;11.098;2023-05-10T05:43:22;20.70;58.40
38237;DHT22;50101;49.438;11.098;2023-05-10T05:45:49;20.70;57.90
38237;DHT22;50101;49.438;11.098;2023-05-10T05:48:16;20.80;58.30
38237;DHT22;50101;49.438;11.098;2023-05-10T05:50:42;20.70;58.70
38237;DHT22;50101;49.438;11.098;2023-05-10T05:53:09;20.70;58.70
38237;DHT22;50101;49.438;11.098;2023-05-10T05:55:36;20.70;58.50
38237;DHT22;50101;49.438;11.098;2023-05-10T05:58:02;20.80;58.60
38237;DHT22;50101;49.438;11.098;2023-05-10T06:00:29;20.80;58.80
38237;DHT22;50101;49.438;11.098;2023-05-10T06:02:56;20.70;59.00
38237;DHT22;50101;49.438;11.098;2023-05-10T06:05:23;20.70;58.80
38237;DHT22;50101;49.438;11.098;2023-05-10T06:07:50;20.70;58.90
38237;DHT22;50101;49.438;11.098;2023-05-10T06:10:16;20.80;58.90
38237;DHT22;50101;49.438;11.098;2023-05-10T06:12:43;20.80;59.00
38237;DHT22;50101;49.438;11.098;2023-05-10T06:15:10;20.80;59.20
38237;DHT22;50101;49.438;11.098;2023-05-10T06:17:37;20.80;59.00
38237;DHT22;50101;49.438;11.098;2023-05-10T06:20:06;20.80;58.90
38237;DHT22;50101;49.438;11.098;2023-05-10T06:22:32;20.80;59.10
38237;DHT22;50101;49.438;11.098;2023-05-10T06:24:59;20.80;59.20
38237;DHT22;50101;49.438;11.098;2023-05-10T06:27:26;20.70;59.20
38237;DHT22;50101;49.438;11.098;2023-05-10T06:29:52;20.70;59.30
38237;DHT22;50101;49.438;11.098;2023-05-10T06:32:35;20.70;59.10
38237;DHT22;50101;49.438;11.098;2023-05-10T06:35:01;20.70;59.10
38237;DHT22;50101;49.438;11.098;2023-05-10T06:37:28;20.70;59.10
38237;DHT22;50101;49.438;11.098;2023-05-10T06:39:55;20.70;58.90
38237;DHT22;50101;49.438;11.098;2023-05-10T06:42:22;20.70;59.00
38237;DHT22;50101;49.438;11.098;2023-05-10T06:44:50;20.70;59.40
38237;DHT22;50101;49.438;11.098;2023-05-10T06:47:16;20.70;59.60
38237;DHT22;50101;49.438;11.098;2023-05-10T06:49:43;20.70;59.60
38237;DHT22;50101;49.438;11.098;2023-05-10T06:52:10;20.80;59.40
38237;DHT22;50101;49.438;11.098;2023-05-10T06:54:37;20.70;59.20
38237;DHT22;50101;49.438;11.098;2023-05-10T06:57:03;20.70;59.20
38237;DHT22;50101;49.438;11.098;2023-05-10T06:59:41;20.70;59.10
38237;DHT22;50101;49.438;11.098;2023-05-10T07:02:08;20.70;59.10
38237;DHT22;50101;49.438;11.098;2023-05-10T07:04:35;20.70;59.00
38237;DHT22;50101;49.438;11.098;2023-05-10T07:07:02;20.70;59.10
38237;DHT22;50101;49.438;11.098;2023-05-10T07:09:29;20.70;59.00
38237;DHT22;50101;49.438;11.098;2023-05-10T07:11:56;20.70;59.00
38237;DHT22;50101;49.438;11.098;2023-05-10T07:14:24;20.70;59.00
38237;DHT22;50101;49.438;11.098;2023-05-10T07:16:50;20.80;59.10
38237;DHT22;50101;49.438;11.098;2023-05-10T07:19:17;20.80;59.10
38237;DHT22;50101;49.438;11.098;2023-05-10T07:21:43;20.70;58.90
38237;DHT22;50101;49.438;11.098;2023-05-10T07:24:10;20.80;59.00
38237;DHT22;50101;49.438;11.098;2023-05-10T07:26:37;20.70;58.90
38237;DHT22;50101;49.438;11.098;2023-05-10T07:29:03;20.80;59.00
38237;DHT22;50101;49.438;11.098;2023-05-10T07:31:30;20.80;59.00
38237;DHT22;50101;49.438;11.098;2023-05-10T07:33:57;20.90;59.40
38237;DHT22;50101;49.438;11.098;2023-05-10T07:36:23;20.80;59.10
38237;DHT22;50101;49.438;11.098;2023-05-10T07:38:50;20.80;59.00
38237;DHT22;50101;49.438;11.098;2023-05-10T07:41:17;20.80;59.00
38237;DHT22;50101;49.438;11.098;2023-05-10T07:43:44;20.80;59.10
38237;DHT22;50101;49.438;11.098;2023-05-10T07:46:10;20.80;59.20
38237;DHT22;50101;49.438;11.098;2023-05-10T07:48:37;20.80;59.30
38237;DHT22;50101;49.438;11.098;2023-05-10T07:51:04;20.80;59.10
38237;DHT22;50101;49.438;11.098;2023-05-10T07:53:30;20.90;59.50
38237;DHT22;50101;49.438;11.098;2023-05-10T07:55:58;20.90;59.30
38237;DHT22;50101;49.438;11.098;2023-05-10T07:58:25;20.80;59.20
38237;DHT22;50101;49.438;11.098;2023-05-10T08:00:52;20.80;59.20
38237;DHT22;50101;49.438;11.098;2023-05-10T08:03:18;20.80;59.00
38237;DHT22;50101;49.438;11.098;2023-05-10T08:05:45;20.90;59.50
38237;DHT22;50101;49.438;11.098;2023-05-10T08:08:12;20.90;59.50
38237;DHT22;50101;49.438;11.098;2023-05-10T08:10:39;20.80;59.30
38237;DHT22;50101;49.438;11.098;2023-05-10T08:13:05;20.80;59.20
38237;DHT22;50101;49.438;11.098;2023-05-10T08:15:32;20.80;58.90
38237;DHT22;50101;49.438;11.098;2023-05-10T08:17:59;20.80;59.00
38237;DHT22;50101;49.438;11.098;2023-05-10T08:20:25;20.90;58.90
38237;DHT22;50101;49.438;11.098;2023-05-10T08:22:52;20.90;59.10
38237;DHT22;50101;49.438;11.098;2023-05-10T08:25:19;20.80;59.20
38237;DHT22;50101;49.438;11.098;2023-05-10T08:27:46;20.80;58.90
38237;DHT22;50101;49.438;11.098;2023-05-10T08:30:13;20.90;59.30
38237;DHT22;50101;49.438;11.098;2023-05-10T08:32:39;20.80;59.20
38237;DHT22;50101;49.438;11.098;2023-05-10T08:35:06;20.90;59.30
38237;DHT22;50101;49.438;11.098;2023-05-10T08:37:33;20.90;59.20
38237;DHT22;50101;49.438;11.098;2023-05-10T08:40:00;20.90;58.70
38237;DHT22;50101;49.438;11.098;2023-05-10T08:42:30;20.90;59.40
38237;DHT22;50101;49.438;11.098;2023-05-10T08:44:59;20.80;59.00
38237;DHT22;50101;49.438;11.098;2023-05-10T08:47:26;20.90;59.60
38237;DHT22;50101;49.438;11.098;2023-05-10T08:49:54;20.90;59.60
38237;DHT22;50101;49.438;11.098;2023-05-10T08:52:21;20.90;59.40
38237;DHT22;50101;49.438;11.098;2023-05-10T08:54:49;20.90;59.50
38237;DHT22;50101;49.438;11.098;2023-05-10T08:57:16;20.90;59.60
38237;DHT22;50101;49.438;11.098;2023-05-10T08:59:43;20.90;59.00
38237;DHT22;50101;49.438;11.098;2023-05-10T09:02:10;20.90;59.30
38237;DHT22;50101;49.438;11.098;2023-05-10T09:04:38;20.90;59.20
38237;DHT22;50101;49.438;11.098;2023-05-10T09:07:05;20.90;59.50
38237;DHT22;50101;49.438;11.098;2023-05-10T09:09:33;20.90;59.50
38237;DHT22;50101;49.438;11.098;2023-05-10T09:12:00;20.90;59.00
38237;DHT22;50101;49.438;11.098;2023-05-10T09:14:26;21.00;59.50
38237;DHT22;50101;49.438;11.098;2023-05-10T09:16:54;20.90;59.60
38237;DHT22;50101;49.438;11.098;2023-05-10T09:19:21;21.00;59.80
38237;DHT22;50101;49.438;11.098;2023-05-10T09:21:48;21.00;59.70
38237;DHT22;50101;49.438;11.098;2023-05-10T09:24:15;20.90;59.80
38237;DHT22;50101;49.438;11.098;2023-05-10T09:26:48;20.90;59.60
38237;DHT22;50101;49.438;11.098;2023-05-10T09:29:15;20.90;59.70
38237;DHT22;50101;49.438;11.098;2023-05-10T09:31:47;20.90;59.70
38237;DHT22;50101;49.438;11.098;2023-05-10T09:34:18;20.90;59.70
38237;DHT22;50101;49.438;11.098;2023-05-10T09:36:57;20.90;59.40
38237;DHT22;50101;49.438;11.098;2023-05-10T09:39:37;21.00;59.70
38237;DHT22;50101;49.438;11.098;2023-05-10T09:42:09;20.90;59.70
38237;DHT22;50101;49.438;11.098;2023-05-10T09:44:36;20.90;59.50
38237;DHT22;50101;49.438;11.098;2023-05-10T09:47:04;20.90;59.50
38237;DHT22;50101;49.438;11.098;2023-05-10T09:49:31;20.90;59.70
38237;DHT22;50101;49.438;11.098;2023-05-10T09:52:04;20.90;59.30
38237;DHT22;50101;49.438;11.098;2023-05-10T09:54:31;20.90;59.70
38237;DHT22;50101;49.438;11.098;2023-05-10T09:56:58;20.90;59.60
38237;DHT22;50101;49.438;11.098;2023-05-10T09:59:26;20.90;59.50
38237;DHT22;50101;49.438;11.098;2023-05-10T10:01:57;20.90;59.40
38237;DHT22;50101;49.438;11.098;2023-05-10T10:04:26;20.90;59.40
38237;DHT22;50101;49.438;11.098;2023-05-10T10:07:03;20.90;59.40
38237;DHT22;50101;49.438;11.098;2023-05-10T10:09:31;20.90;59.50
38237;DHT22;50101;49.438;11.098;2023-05-10T10:11:59;20.90;59.50
38237;DHT22;50101;49.438;11.098;2023-05-10T10:14:26;20.90;59.60
38237;DHT22;50101;49.438;11.098;2023-05-10T10:16:53;20.90;59.40
38237;DHT22;50101;49.438;11.098;2023-05-10T10:19:34;20.90;59.50
38237;DHT22;50101;49.438;11.098;2023-05-10T10:22:02;20.90;59.50
38237;DHT22;50101;49.438;11.098;2023-05-10T10:24:29;20.90;59.60
38237;DHT22;50101;49.438;11.098;2023-05-10T10:27:04;20.90;59.60
38237;DHT22;50101;49.438;11.098;2023-05-10T10:29:39;20.90;59.50
38237;DHT22;50101;49.438;11.098;2023-05-10T10:32:22;20.90;59.70
38237;DHT22;50101;49.438;11.098;2023-05-10T10:34:51;20.90;59.60
38237;DHT22;50101;49.438;11.098;2023-05-10T10:37:18;21.00;59.60
38237;DHT22;50101;49.438;11.098;2023-05-10T10:39:48;21.00;59.30
38237;DHT22;50101;49.438;11.098;2023-05-10T10:42:44;21.00;59.50
38237;DHT22;50101;49.438;11.098;2023-05-10T10:45:12;21.00;59.80
38237;DHT22;50101;49.438;11.098;2023-05-10T10:47:42;21.10;59.90
38237;DHT22;50101;49.438;11.098;2023-05-10T10:50:10;21.10;59.80
38237;DHT22;50101;49.438;11.098;2023-05-10T10:52:45;21.10;59.80
38237;DHT22;50101;49.438;11.098;2023-05-10T10:55:14;21.10;59.90
38237;DHT22;50101;49.438;11.098;2023-05-10T10:57:50;21.00;59.80
38237;DHT22;50101;49.438;11.098;2023-05-10T11:00:30;21.00;59.80
38237;DHT22;50101;49.438;11.098;2023-05-10T11:03:00;21.00;60.10
38237;DHT22;50101;49.438;11.098;2023-05-10T11:07:57;21.00;59.80
38237;DHT22;50101;49.438;11.098;2023-05-10T11:10:24;20.90;59.70
38237;DHT22;50101;49.438;11.098;2023-05-10T11:12:59;20.40;59.30
38237;DHT22;50101;49.438;11.098;2023-05-10T11:15:39;20.90;59.70
38237;DHT22;50101;49.438;11.098;2023-05-10T11:18:29;20.90;59.70
38237;DHT22;50101;49.438;11.098;2023-05-10T11:20:58;20.90;59.70
38237;DHT22;50101;49.438;11.098;2023-05-10T11:23:55;20.90;59.10
38237;DHT22;50101;49.438;11.098;2023-05-10T11:26:25;20.90;59.60
38237;DHT22;50101;49.438;11.098;2023-05-10T11:28:53;20.90;59.60
38237;DHT22;50101;49.438;11.098;2023-05-10T11:31:25;20.90;59.50
38237;DHT22;50101;49.438;11.098;2023-05-10T11:33:55;20.90;59.50
38237;DHT22;50101;49.438;11.098;2023-05-10T11:36:27;20.90;59.60
38237;DHT22;50101;49.438;11.098;2023-05-10T11:38:55;20.90;59.50
38237;DHT22;50101;49.438;11.098;2023-05-10T11:41:23;20.90;59.70
38237;DHT22;50101;49.438;11.098;2023-05-10T11:43:52;20.90;59.70
38237;DHT22;50101;49.438;11.098;2023-05-10T11:46:20;21.00;59.30
38237;DHT22;50101;49.438;11.098;2023-05-10T11:48:50;21.00;59.80
38237;DHT22;50101;49.438;11.098;2023-05-10T11:51:21;21.10;59.90
38237;DHT22;50101;49.438;11.098;2023-05-10T11:53:50;21.10;59.90
38237;DHT22;50101;49.438;11.098;2023-05-10T11:56:18;21.10;59.90
38237;DHT22;50101;49.438;11.098;2023-05-10T11:58:44;21.00;59.80
38237;DHT22;50101;49.438;11.098;2023-05-10T12:01:13;21.00;59.80
38237;DHT22;50101;49.438;11.098;2023-05-10T12:03:40;21.00;59.80
38237;DHT22;50101;49.438;11.098;2023-05-10T12:06:07;21.00;59.80
38237;DHT22;50101;49.438;11.098;2023-05-10T12:08:34;20.90;59.70
38237;DHT22;50101;49.438;11.098;2023-05-10T12:11:06;21.00;59.80
38237;DHT22;50101;49.438;11.098;2023-05-10T12:13:38;21.00;59.80
38237;DHT22;50101;49.438;11.098;2023-05-10T12:16:17;21.00;59.80
38237;DHT22;50101;49.438;11.098;2023-05-10T12:18:45;21.00;59.80
38237;DHT22;50101;49.438;11.098;2023-05-10T12:21:12;21.00;59.80
38237;DHT22;50101;49.438;11.098;2023-05-10T12:23:39;21.00;59.80
38237;DHT22;50101;49.438;11.098;2023-05-10T12:26:09;21.00;61.00
38237;DHT22;50101;49.438;11.098;2023-05-10T12:28:37;21.10;60.60
38237;DHT22;50101;49.438;11.098;2023-05-10T12:31:05;21.10;59.90
38237;DHT22;50101;49.438;11.098;2023-05-10T12:33:36;21.10;59.90
38237;DHT22;50101;49.438;11.098;2023-05-10T12:36:05;21.00;59.80
38237;DHT22;50101;49.438;11.098;2023-05-10T12:38:40;21.00;59.80
38237;DHT22;50101;49.438;11.098;2023-05-10T12:41:10;21.00;59.80
38237;DHT22;50101;49.438;11.098;2023-05-10T12:43:38;21.00;59.80
38237;DHT22;50101;49.438;11.098;2023-05-10T12:46:16;21.00;59.80
38237;DHT22;50101;49.438;11.098;2023-05-10T12:48:44;21.00;59.80
38237;DHT22;50101;49.438;11.098;2023-05-10T12:51:10;21.00;60.10
38237;DHT22;50101;49.438;11.098;2023-05-10T12:53:43;21.00;60.40
38237;DHT22;50101;49.438;11.098;2023-05-10T12:56:15;21.00;59.80
38237;DHT22;50101;49.438;11.098;2023-05-10T12:58:41;21.00;59.80
38237;DHT22;50101;49.438;11.098;2023-05-10T13:01:08;21.00;59.80
38237;DHT22;50101;49.438;11.098;2023-05-10T13:03:35;21.00;59.80
38237;DHT22;50101;49.438;11.098;2023-05-10T13:06:01;21.00;59.70
38237;DHT22;50101;49.438;11.098;2023-05-10T13:08:28;21.00;59.80
38237;DHT22;50101;49.438;11.098;2023-05-10T13:11:02;21.10;60.40
38237;DHT22;50101;49.438;11.098;2023-05-10T13:13:29;21.10;60.50
38237;DHT22;50101;49.438;11.098;2023-05-10T13:15:56;21.00;60.00
38237;DHT22;50101;49.438;11.098;2023-05-10T13:18:23;21.00;59.80
38237;DHT22;50101;49.438;11.098;2023-05-10T13:20:51;21.00;59.80
38237;DHT22;50101;49.438;11.098;2023-05-10T13:23:17;21.00;59.90
38237;DHT22;50101;49.438;11.098;2023-05-10T13:25:45;21.00;60.30
38237;DHT22;50101;49.438;11.098;2023-05-10T13:28:12;21.10;60.00
38237;DHT22;50101;49.438;11.098;2023-05-10T13:30:38;21.00;59.80
38237;DHT22;50101;49.438;11.098;2023-05-10T13:33:05;21.00;59.80
38237;DHT22;50101;49.438;11.098;2023-05-10T13:35:32;21.00;59.80
38237;DHT22;50101;49.438;11.098;2023-05-10T13:37:58;21.00;59.90
38237;DHT22;50101;49.438;11.098;2023-05-10T13:40:25;21.00;60.60
38237;DHT22;50101;49.438;11.098;2023-05-10T13:42:51;21.00;60.30
38237;DHT22;50101;49.438;11.098;2023-05-10T13:45:19;21.00;59.80
38237;DHT22;50101;49.438;11.098;2023-05-10T13:47:46;21.00;59.80
38237;DHT22;50101;49.438;11.098;2023-05-10T13:50:12;21.00;59.80
38237;DHT22;50101;49.438;11.098;2023-05-10T13:52:39;21.10;59.90
38237;DHT22;50101;49.438;11.098;2023-05-10T13:55:06;21.10;60.20
38237;DHT22;50101;49.438;11.098;2023-05-10T13:57:33;21.10;60.40
38237;DHT22;50101;49.438;11.098;2023-05-10T14:00:02;21.00;59.80
38237;DHT22;50101;49.438;11.098;2023-05-10T14:02:29;21.10;60.40
38237;DHT22;50101;49.438;11.098;2023-05-10T14:04:56;21.10;60.60
38237;DHT22;50101;49.438;11.098;2023-05-10T14:07:22;21.10;60.50
38237;DHT22;50101;49.438;11.098;2023-05-10T14:09:49;21.10;60.20
38237;DHT22;50101;49.438;11.098;2023-05-10T14:12:16;21.00;59.80
38237;DHT22;50101;49.438;11.098;2023-05-10T14:14:43;21.00;59.80
38237;DHT22;50101;49.438;11.098;2023-05-10T14:17:09;21.10;60.80
38237;DHT22;50101;49.438;11.098;2023-05-10T14:19:38;21.10;60.00
38237;DHT22;50101;49.438;11.098;2023-05-10T14:22:05;21.10;60.70
38237;DHT22;50101;49.438;11.098;2023-05-10T14:24:32;21.00;60.50
38237;DHT22;50101;49.438;11.098;2023-05-10T14:26:59;21.00;60.70
38237;DHT22;50101;49.438;11.098;2023-05-10T14:29:26;21.00;59.80
38237;DHT22;50101;49.438;11.098;2023-05-10T14:31:53;21.10;60.90
38237;DHT22;50101;49.438;11.098;2023-05-10T14:34:20;21.10;60.40
38237;DHT22;50101;49.438;11.098;2023-05-10T14:36:47;21.10;60.40
38237;DHT22;50101;49.438;11.098;2023-05-10T14:39:13;21.10;59.90
38237;DHT22;50101;49.438;11.098;2023-05-10T14:41:41;21.10;60.60
38237;DHT22;50101;49.438;11.098;2023-05-10T14:44:12;21.00;60.30
38237;DHT22;50101;49.438;11.098;2023-05-10T14:46:42;21.00;59.80
38237;DHT22;50101;49.438;11.098;2023-05-10T14:49:08;21.00;60.50
38237;DHT22;50101;49.438;11.098;2023-05-10T14:51:35;21.00;60.50
38237;DHT22;50101;49.438;11.098;2023-05-10T14:54:03;21.10;61.00
38237;DHT22;50101;49.438;11.098;2023-05-10T14:56:29;21.10;60.40
38237;DHT22;50101;49.438;11.098;2023-05-10T14:58:56;21.10;61.10
38237;DHT22;50101;49.438;11.098;2023-05-10T15:01:23;21.30;61.20
38237;DHT22;50101;49.438;11.098;2023-05-10T15:03:51;21.40;60.90
38237;DHT22;50101;49.438;11.098;2023-05-10T15:06:23;21.40;60.60
38237;DHT22;50101;49.438;11.098;2023-05-10T15:08:51;21.50;60.40
38237;DHT22;50101;49.438;11.098;2023-05-10T15:11:18;21.50;60.30
38237;DHT22;50101;49.438;11.098;2023-05-10T15:13:45;21.50;60.30
38237;DHT22;50101;49.438;11.098;2023-05-10T15:16:11;21.50;60.30
38237;DHT22;50101;49.438;11.098;2023-05-10T15:18:38;21.50;60.30
38237;DHT22;50101;49.438;11.098;2023-05-10T15:21:05;21.60;60.40
38237;DHT22;50101;49.438;11.098;2023-05-10T15:23:31;21.60;60.40
38237;DHT22;50101;49.438;11.098;2023-05-10T15:25:58;21.60;60.60
38237;DHT22;50101;49.438;11.098;2023-05-10T15:28:25;21.50;60.80
38237;DHT22;50101;49.438;11.098;2023-05-10T15:30:51;21.60;61.20
38237;DHT22;50101;49.438;11.098;2023-05-10T15:33:18;21.60;60.80
38237;DHT22;50101;49.438;11.098;2023-05-10T15:35:45;21.60;60.40
38237;DHT22;50101;49.438;11.098;2023-05-10T15:38:11;21.60;60.40
38237;DHT22;50101;49.438;11.098;2023-05-10T15:40:38;21.60;60.80